Time;durP1;ratioP1;P1;durP2;ratioP2;P2;SDS_P1;SDS_P2;PMS_P1;PMS_P2;Temp;Humidity;BMP_temperature;BMP_pressure;BME280_temperature;BME280_humidity;BME280_pressure;Samples;Min_cycle;Max_cycle;Signal;HPM_P1;HPM_P2
2021/12/11 00:02:08;;;;;;;26.00;24.90;;;4.30;99.90;;;;;;5051319;28;20821;-73
2021/12/11 00:04:38;;;;;;;25.40;24.30;;;4.30;99.90;;;;;;5051457;28;20552;-73
2021/12/11 00:07:07;;;;;;;25.73;24.63;;;4.30;99.90;;;;;;5051080;28;20440;-73
2021/12/11 00:09:41;;;;;;;24.80;23.80;;;4.20;99.90;;;;;;5051154;28;20491;-72
2021/12/11 00:12:12;;;;;;;24.93;23.83;;;4.20;99.90;;;;;;5051117;28;20452;-72
2021/12/11 00:14:43;;;;;;;24.23;23.13;;;4.30;99.90;;;;;;5050930;28;21282;-72
2021/12/11 00:17:12;;;;;;;24.90;23.90;;;4.30;99.90;;;;;;5051031;28;20953;-73
2021/12/11 00:19:41;;;;;;;24.60;23.60;;;4.30;99.90;;;;;;5050933;28;20953;-72
2021/12/11 00:22:12;;;;;;;25.30;24.20;;;4.30;99.90;;;;;;5050884;28;20458;-71
2021/12/11 00:24:40;;;;;;;25.00;24.00;;;4.30;99.90;;;;;;5050777;28;20462;-71
2021/12/11 00:27:10;;;;;;;24.30;23.30;;;4.30;99.90;;;;;;5050813;28;20942;-71
2021/12/11 00:29:38;;;;;;;24.50;23.50;;;4.30;99.90;;;;;;5050678;28;20533;-71
2021/12/11 00:32:07;;;;;;;24.37;23.37;;;4.30;99.90;;;;;;5050936;28;20444;-72
2021/12/11 00:34:35;;;;;;;23.67;22.77;;;4.40;99.90;;;;;;5050721;28;20956;-72
2021/12/11 00:37:07;;;;;;;25.33;24.33;;;4.40;99.90;;;;;;5070975;28;20946;-71
2021/12/11 00:39:43;;;;;;;24.87;23.87;;;4.40;99.90;;;;;;5071006;28;20470;-72
2021/12/11 00:42:12;;;;;;;24.93;23.93;;;4.50;99.90;;;;;;5066604;28;20450;-72
2021/12/11 00:44:42;;;;;;;25.67;24.57;;;4.60;99.90;;;;;;5050445;28;20444;-72
2021/12/11 00:47:12;;;;;;;25.60;24.50;;;4.60;99.90;;;;;;5064183;28;20490;-72
2021/12/11 00:49:47;;;;;;;26.23;25.13;;;4.70;99.90;;;;;;5070779;28;20572;-73
2021/12/11 00:52:14;;;;;;;27.50;26.20;;;4.70;99.90;;;;;;5070775;28;20455;-72
2021/12/11 00:54:43;;;;;;;27.83;26.63;;;4.60;99.90;;;;;;5070638;28;20452;-72
2021/12/11 00:57:12;;;;;;;30.03;28.60;;;4.60;99.90;;;;;;5070886;28;20451;-73
2021/12/11 00:59:40;;;;;;;30.43;28.87;;;4.40;99.90;;;;;;5089349;28;20443;-73
2021/12/11 01:02:07;;;;;;;30.23;28.77;;;4.30;99.90;;;;;;5090888;28;20987;-73
2021/12/11 01:04:41;;;;;;;29.60;28.20;;;4.20;99.90;;;;;;5088804;28;20453;-75
2021/12/11 01:07:16;;;;;;;30.23;28.77;;;4.20;99.90;;;;;;5071112;28;20431;-75
2021/12/11 01:09:49;;;;;;;30.10;28.60;;;4.20;99.90;;;;;;5070645;28;20478;-73
2021/12/11 01:12:24;;;;;;;29.33;27.90;;;4.10;99.90;;;;;;5070582;28;20454;-74
2021/12/11 01:14:55;;;;;;;30.77;29.27;;;4.00;99.90;;;;;;5070410;28;20459;-75
2021/12/11 01:17:31;;;;;;;31.90;30.30;;;3.90;99.90;;;;;;5070197;28;20512;-75
2021/12/11 01:20:02;;;;;;;31.00;29.30;;;3.90;99.90;;;;;;5073298;28;20427;-76
2021/12/11 01:22:34;;;;;;;31.90;30.33;;;4.00;99.90;;;;;;5074132;28;21020;-77
2021/12/11 01:25:06;;;;;;;31.93;30.43;;;4.00;99.90;;;;;;5074450;28;20511;-78
2021/12/11 01:27:37;;;;;;;31.10;29.70;;;4.10;99.90;;;;;;5074356;28;20454;-78
2021/12/11 01:30:07;;;;;;;30.60;29.00;;;4.00;99.90;;;;;;5064258;28;20480;-75
2021/12/11 01:32:34;;;;;;;30.40;29.10;;;4.00;99.90;;;;;;5072951;28;20995;-76
2021/12/11 01:35:05;;;;;;;30.87;29.37;;;4.00;99.90;;;;;;5074944;28;20448;-76
2021/12/11 01:37:32;;;;;;;30.93;29.43;;;4.00;99.90;;;;;;5072890;28;20454;-75
2021/12/11 01:39:59;;;;;;;30.53;29.13;;;4.10;99.90;;;;;;5072375;28;20439;-76
2021/12/11 01:42:29;;;;;;;30.00;28.60;;;4.10;99.90;;;;;;5070994;28;20448;-75
2021/12/11 01:44:59;;;;;;;29.73;28.43;;;4.10;99.90;;;;;;5079036;28;20447;-76
2021/12/11 01:47:30;;;;;;;30.33;28.97;;;4.10;99.90;;;;;;5077107;28;20477;-77
2021/12/11 01:50:00;;;;;;;30.03;28.50;;;4.10;99.90;;;;;;5075147;28;20499;-76
2021/12/11 01:52:35;;;;;;;29.97;28.57;;;4.10;99.90;;;;;;5074164;28;20439;-76
2021/12/11 01:55:08;;;;;;;30.50;29.10;;;4.20;99.90;;;;;;5073721;28;20448;-76
2021/12/11 01:57:35;;;;;;;32.57;30.97;;;4.20;99.90;;;;;;5074286;28;20445;-76
2021/12/11 02:00:12;;;;;;;31.00;29.70;;;4.20;99.90;;;;;;5076156;28;20662;-75
2021/12/11 02:02:43;;;;;;;29.80;28.50;;;4.20;99.90;;;;;;5072673;28;20442;-75
2021/12/11 02:05:13;;;;;;;28.87;27.67;;;4.10;99.90;;;;;;5075480;28;20427;-75
2021/12/11 02:07:43;;;;;;;28.80;27.60;;;4.10;99.90;;;;;;5066651;28;20849;-75
2021/12/11 02:10:18;;;;;;;28.23;27.13;;;4.10;99.90;;;;;;5076244;28;20480;-74
2021/12/11 02:12:45;;;;;;;28.50;27.40;;;4.10;99.90;;;;;;5072338;28;20450;-75
2021/12/11 02:15:16;;;;;;;29.43;28.20;;;4.10;99.90;;;;;;5078313;28;21286;-74
2021/12/11 02:17:47;;;;;;;29.13;27.97;;;4.10;99.90;;;;;;5082428;28;20460;-75
2021/12/11 02:20:20;;;;;;;29.17;27.80;;;4.00;99.90;;;;;;5077763;28;20442;-74
2021/12/11 02:22:50;;;;;;;29.13;27.93;;;4.00;99.90;;;;;;5082603;28;20494;-74
2021/12/11 02:25:19;;;;;;;29.03;27.83;;;4.00;99.90;;;;;;5081111;28;20450;-73
2021/12/11 02:27:51;;;;;;;28.57;27.47;;;3.90;99.90;;;;;;5080721;28;20438;-74
2021/12/11 02:30:24;;;;;;;28.63;27.53;;;4.00;99.90;;;;;;5081426;28;20480;-74
2021/12/11 02:32:57;;;;;;;28.20;27.10;;;4.00;99.90;;;;;;5077382;28;20437;-76
2021/12/11 02:35:28;;;;;;;26.60;25.60;;;4.00;99.90;;;;;;5081844;28;20957;-76
2021/12/11 02:38:04;;;;;;;27.80;26.70;;;4.00;99.90;;;;;;5077589;28;20441;-76
2021/12/11 02:40:37;;;;;;;28.33;27.23;;;3.90;99.90;;;;;;5082783;28;20438;-76
2021/12/11 02:43:08;;;;;;;29.30;27.90;;;3.80;99.90;;;;;;5081475;28;20524;-76
2021/12/11 02:45:39;;;;;;;27.93;26.83;;;3.80;99.90;;;;;;5078187;28;20506;-77
2021/12/11 02:48:11;;;;;;;27.97;26.80;;;3.80;99.90;;;;;;5079353;28;20438;-76
2021/12/11 02:50:42;;;;;;;28.90;27.63;;;3.70;99.90;;;;;;5081834;28;20483;-74
2021/12/11 02:53:14;;;;;;;28.10;26.90;;;3.70;99.90;;;;;;5081042;28;20447;-74
2021/12/11 02:55:46;;;;;;;28.03;26.93;;;3.80;99.90;;;;;;5079687;28;20454;-74
2021/12/11 02:58:16;;;;;;;29.70;28.40;;;3.80;99.90;;;;;;5080510;28;20785;-74
2021/12/11 03:00:46;;;;;;;29.73;28.53;;;3.80;99.90;;;;;;5076523;28;20452;-74
2021/12/11 03:03:15;;;;;;;28.73;27.50;;;3.80;99.90;;;;;;5081511;28;20450;-73
2021/12/11 03:05:55;;;;;;;29.90;28.70;;;3.80;99.90;;;;;;5076182;28;20450;-75
2021/12/11 03:08:23;;;;;;;29.27;28.07;;;3.90;99.90;;;;;;5079503;28;20438;-74
2021/12/11 03:10:55;;;;;;;29.73;28.53;;;4.00;99.90;;;;;;5080611;28;20484;-74
2021/12/11 03:13:24;;;;;;;29.83;28.53;;;4.00;99.90;;;;;;5079906;28;20443;-73
2021/12/11 03:15:51;;;;;;;30.60;29.30;;;4.00;99.90;;;;;;5080737;28;20435;-74
2021/12/11 03:18:18;;;;;;;30.83;29.40;;;4.00;99.90;;;;;;5081575;28;20825;-73
2021/12/11 03:20:47;;;;;;;30.90;29.60;;;4.00;99.90;;;;;;5079710;28;20522;-74
2021/12/11 03:23:15;;;;;;;31.03;29.63;;;3.90;99.90;;;;;;5079772;28;20480;-73
2021/12/11 03:25:44;;;;;;;31.67;30.27;;;4.00;99.90;;;;;;5081357;28;20438;-72
2021/12/11 03:28:12;;;;;;;30.57;29.27;;;4.00;99.90;;;;;;5081522;28;20451;-73
2021/12/11 03:30:43;;;;;;;30.33;28.93;;;4.00;99.90;;;;;;5080431;28;20474;-73
2021/12/11 03:33:16;;;;;;;30.90;29.50;;;4.00;99.90;;;;;;5079627;28;20445;-73
2021/12/11 03:35:43;;;;;;;30.80;29.40;;;4.00;99.90;;;;;;5073157;28;20808;-73
2021/12/11 03:38:11;;;;;;;30.87;29.47;;;4.10;99.90;;;;;;5071555;28;20464;-72
2021/12/11 03:40:38;;;;;;;30.70;29.30;;;4.00;99.90;;;;;;5071322;28;20444;-72
2021/12/11 03:43:10;;;;;;;30.80;29.40;;;4.00;99.90;;;;;;5071037;28;20454;-73
2021/12/11 03:45:41;;;;;;;31.10;29.70;;;4.00;99.90;;;;;;5071087;28;20453;-74
2021/12/11 03:48:13;;;;;;;29.97;28.67;;;4.00;99.90;;;;;;5080965;28;20446;-73
2021/12/11 03:50:41;;;;;;;29.93;28.63;;;4.00;99.90;;;;;;5079547;28;20909;-74
2021/12/11 03:53:08;;;;;;;31.73;30.23;;;4.00;99.90;;;;;;5084455;28;20437;-73
2021/12/11 03:55:38;;;;;;;30.90;29.50;;;4.10;99.90;;;;;;5090742;28;20460;-74
2021/12/11 03:58:07;;;;;;;30.73;29.33;;;4.10;99.90;;;;;;5090501;28;20471;-73
2021/12/11 04:00:37;;;;;;;30.90;29.50;;;4.10;99.90;;;;;;5090634;28;20468;-73
2021/12/11 04:03:06;;;;;;;32.57;31.07;;;4.10;99.90;;;;;;5090452;28;20457;-74
2021/12/11 04:05:35;;;;;;;31.90;30.50;;;4.10;99.90;;;;;;5090633;28;20466;-72
2021/12/11 04:08:03;;;;;;;33.50;32.00;;;4.10;99.90;;;;;;5090330;28;20446;-73
2021/12/11 04:10:30;;;;;;;32.37;30.87;;;4.10;99.90;;;;;;5090536;28;20512;-73
2021/12/11 04:12:59;;;;;;;32.83;31.33;;;4.00;99.90;;;;;;5090617;28;20441;-73
2021/12/11 04:15:27;;;;;;;33.50;31.87;;;4.00;99.90;;;;;;5091239;28;20855;-73
2021/12/11 04:17:54;;;;;;;34.40;32.70;;;4.10;99.90;;;;;;5091030;28;20449;-73
2021/12/11 04:20:24;;;;;;;32.23;30.73;;;4.10;99.90;;;;;;5090784;28;20476;-74
2021/12/11 04:22:51;;;;;;;32.30;30.80;;;4.10;99.90;;;;;;5090562;28;21023;-73
2021/12/11 04:25:21;;;;;;;32.43;30.93;;;4.10;99.90;;;;;;5090920;28;20453;-73
2021/12/11 04:27:48;;;;;;;33.53;31.93;;;4.10;99.90;;;;;;5090910;28;20453;-73
2021/12/11 04:30:17;;;;;;;33.83;32.23;;;4.00;99.90;;;;;;5090873;28;20497;-73
2021/12/11 04:32:48;;;;;;;34.00;32.30;;;4.00;99.90;;;;;;5090784;28;20452;-73
2021/12/11 04:35:16;;;;;;;34.07;32.47;;;3.90;99.90;;;;;;5090982;28;20446;-73
2021/12/11 04:37:43;;;;;;;33.93;32.37;;;4.00;99.90;;;;;;5090436;28;20487;-74
2021/12/11 04:40:13;;;;;;;34.53;32.83;;;4.10;99.90;;;;;;5090696;28;20479;-74
2021/12/11 04:42:51;;;;;;;34.83;33.13;;;4.10;99.90;;;;;;5082409;28;20443;-73
2021/12/11 04:45:21;;;;;;;35.13;33.23;;;4.10;99.90;;;;;;5070531;28;20451;-73
2021/12/11 04:47:54;;;;;;;34.03;32.43;;;4.20;99.90;;;;;;5069989;28;20995;-72
2021/12/11 04:50:30;;;;;;;34.70;33.07;;;4.20;99.90;;;;;;5070408;28;20490;-73
2021/12/11 04:52:59;;;;;;;34.90;33.00;;;4.10;99.90;;;;;;5072795;28;20726;-73
2021/12/11 04:55:47;;;;;;;36.37;34.47;;;4.00;99.90;;;;;;5076811;28;20458;-72
2021/12/11 04:58:47;;;;;;;35.80;34.10;;;4.10;99.90;;;;;;5076954;28;20451;-73
2021/12/11 05:01:32;;;;;;;34.23;32.63;;;4.00;99.90;;;;;;5076973;28;20512;-73
2021/12/11 05:04:16;;;;;;;36.83;34.90;;;4.00;99.90;;;;;;5076583;28;20955;-73
2021/12/11 05:06:52;;;;;;;36.37;34.37;;;4.00;99.90;;;;;;5076241;28;20563;-73
2021/12/11 05:09:30;;;;;;;35.03;33.33;;;4.00;99.90;;;;;;5076989;28;20456;-73
2021/12/11 05:12:10;;;;;;;35.77;33.77;;;3.90;99.90;;;;;;5077092;28;20492;-72
2021/12/11 05:14:38;;;;;;;35.77;33.97;;;3.90;99.90;;;;;;5076747;28;21007;-73
2021/12/11 05:17:06;;;;;;;36.90;35.00;;;4.00;99.90;;;;;;5076963;28;20442;-73
2021/12/11 05:19:35;;;;;;;37.00;35.10;;;4.00;99.90;;;;;;5077141;28;20450;-73
2021/12/11 05:22:04;;;;;;;36.93;34.93;;;4.10;99.90;;;;;;5076500;28;20451;-72
2021/12/11 05:24:31;;;;;;;37.23;35.33;;;4.00;99.90;;;;;;5076570;28;20787;-72
2021/12/11 05:26:58;;;;;;;36.43;34.43;;;4.10;99.90;;;;;;5076254;28;20451;-71
2021/12/11 05:29:25;;;;;;;37.80;35.70;;;4.00;99.90;;;;;;5078458;28;20942;-72
2021/12/11 05:31:52;;;;;;;38.37;36.27;;;4.00;99.90;;;;;;5096375;28;21115;-71
2021/12/11 05:34:19;;;;;;;38.30;36.20;;;4.00;99.90;;;;;;5095650;28;20428;-71
2021/12/11 05:36:47;;;;;;;39.60;37.40;;;4.00;99.90;;;;;;5091434;28;20505;-72
2021/12/11 05:39:16;;;;;;;38.90;36.80;;;4.10;99.90;;;;;;5076730;28;20509;-72
2021/12/11 05:41:44;;;;;;;39.30;37.10;;;4.10;99.90;;;;;;5076378;28;20498;-72
2021/12/11 05:44:12;;;;;;;39.67;37.37;;;4.10;99.90;;;;;;5076624;28;20453;-72
2021/12/11 05:46:41;;;;;;;38.80;36.50;;;4.00;99.90;;;;;;5076347;28;20483;-72
2021/12/11 05:49:09;;;;;;;40.93;38.63;;;4.00;99.90;;;;;;5076268;28;20454;-72
2021/12/11 05:51:39;;;;;;;39.40;37.23;;;4.00;99.90;;;;;;5076411;28;20505;-72
2021/12/11 05:54:11;;;;;;;40.00;37.70;;;4.00;99.90;;;;;;5076917;28;20473;-72
2021/12/11 05:56:40;;;;;;;39.80;37.60;;;3.90;99.90;;;;;;5076650;28;20454;-71
2021/12/11 05:59:09;;;;;;;40.93;38.63;;;3.90;99.90;;;;;;5076323;28;20491;-72
2021/12/11 06:01:39;;;;;;;40.53;38.13;;;4.00;99.90;;;;;;5076454;28;20812;-72
2021/12/11 06:04:09;;;;;;;40.23;37.83;;;4.00;99.90;;;;;;5075139;28;20833;-72
2021/12/11 06:06:37;;;;;;;40.53;38.27;;;4.00;99.90;;;;;;5073195;28;20864;-73
2021/12/11 06:09:06;;;;;;;39.17;36.93;;;4.00;99.90;;;;;;5073333;28;20830;-73
2021/12/11 06:11:35;;;;;;;41.13;38.73;;;4.00;99.90;;;;;;5073252;28;20482;-73
2021/12/11 06:14:02;;;;;;;42.53;40.03;;;4.00;99.90;;;;;;5073025;28;20447;-73
2021/12/11 06:16:28;;;;;;;40.47;38.07;;;4.00;99.90;;;;;;5073105;28;20492;-72
2021/12/11 06:18:56;;;;;;;39.50;37.10;;;3.90;99.90;;;;;;5073238;28;20450;-72
2021/12/11 06:21:23;;;;;;;40.30;37.90;;;4.00;99.90;;;;;;5073064;28;20922;-72
2021/12/11 06:23:50;;;;;;;41.23;38.83;;;4.00;99.90;;;;;;5072904;28;20478;-73
2021/12/11 06:26:17;;;;;;;41.23;38.83;;;4.00;99.90;;;;;;5072719;28;20851;-73
2021/12/11 06:28:45;;;;;;;41.87;39.37;;;4.00;99.90;;;;;;5073093;28;20451;-73
2021/12/11 06:31:18;;;;;;;42.40;39.80;;;4.10;99.90;;;;;;5073309;28;20486;-73
2021/12/11 06:33:45;;;;;;;43.53;40.60;;;4.10;99.90;;;;;;5073085;28;20459;-72
2021/12/11 06:36:13;;;;;;;42.67;40.00;;;4.10;99.90;;;;;;5072814;28;20459;-73
2021/12/11 06:38:40;;;;;;;44.20;41.40;;;4.00;99.90;;;;;;5072320;28;21006;-73
2021/12/11 06:41:09;;;;;;;43.90;41.20;;;4.20;99.90;;;;;;5072762;28;20500;-78
2021/12/11 06:43:36;;;;;;;45.77;42.87;;;4.10;99.90;;;;;;5072527;28;20442;-75
2021/12/11 06:46:06;;;;;;;43.97;41.13;;;4.10;99.90;;;;;;5078397;28;20843;-80
2021/12/11 06:48:33;;;;;;;45.10;42.30;;;4.10;99.90;;;;;;5092899;28;20454;-73
2021/12/11 06:51:01;;;;;;;45.67;42.73;;;4.10;99.90;;;;;;5090540;28;20999;-73
2021/12/11 06:53:34;;;;;;;43.27;40.67;;;4.20;99.90;;;;;;5091011;28;20446;-73
2021/12/11 06:56:01;;;;;;;45.10;42.20;;;4.30;99.90;;;;;;5092646;28;20453;-73
2021/12/11 06:58:27;;;;;;;46.30;43.30;;;4.20;99.90;;;;;;5092747;28;20450;-72
2021/12/11 07:00:54;;;;;;;47.03;43.93;;;4.20;99.90;;;;;;5092482;28;20474;-72
2021/12/11 07:03:22;;;;;;;46.40;43.23;;;4.10;99.90;;;;;;5092564;28;21038;-72
2021/12/11 07:05:49;;;;;;;44.63;41.57;;;4.20;99.90;;;;;;5092613;28;20434;-73
2021/12/11 07:08:17;;;;;;;47.50;44.30;;;4.10;99.90;;;;;;5092252;28;20929;-72
2021/12/11 07:10:46;;;;;;;45.87;42.77;;;4.20;99.90;;;;;;5092132;28;20459;-72
2021/12/11 07:13:14;;;;;;;45.93;42.90;;;4.10;99.90;;;;;;5092144;28;20813;-72
2021/12/11 07:15:41;;;;;;;46.33;43.27;;;4.00;99.90;;;;;;5091841;28;20444;-73
2021/12/11 07:18:08;;;;;;;45.43;42.37;;;4.10;99.90;;;;;;5091846;28;20827;-72
2021/12/11 07:20:37;;;;;;;45.07;42.13;;;4.10;99.90;;;;;;5092099;28;20458;-72
2021/12/11 07:23:04;;;;;;;46.87;43.87;;;4.00;99.90;;;;;;5092000;28;21034;-72
2021/12/11 07:25:50;;;;;;;46.63;43.77;;;4.10;99.90;;;;;;5092103;28;20465;-73
2021/12/11 07:28:17;;;;;;;48.20;44.93;;;4.10;99.90;;;;;;5091958;28;20943;-73
2021/12/11 07:30:47;;;;;;;45.57;42.67;;;4.20;99.90;;;;;;5091939;28;20859;-73
2021/12/11 07:33:14;;;;;;;48.70;45.50;;;4.10;99.90;;;;;;5092277;28;20444;-73
2021/12/11 07:35:44;;;;;;;47.40;44.20;;;4.00;99.90;;;;;;5092319;28;20443;-73
2021/12/11 07:38:12;;;;;;;46.40;43.10;;;4.10;99.90;;;;;;5092129;28;20453;-72
2021/12/11 07:40:43;;;;;;;46.10;43.10;;;4.10;99.90;;;;;;5092014;28;20442;-72
2021/12/11 07:43:11;;;;;;;47.20;44.07;;;4.10;99.90;;;;;;5079488;28;20438;-72
2021/12/11 07:45:38;;;;;;;47.27;44.10;;;4.10;99.90;;;;;;5071431;28;20990;-73
2021/12/11 07:48:06;;;;;;;46.70;43.70;;;4.10;99.90;;;;;;5071732;28;20443;-73
2021/12/11 07:50:33;;;;;;;45.40;42.50;;;4.20;99.90;;;;;;5071405;28;20459;-71
2021/12/11 07:53:02;;;;;;;45.87;42.90;;;4.20;99.90;;;;;;5071492;28;20483;-71
2021/12/11 07:55:28;;;;;;;46.20;43.10;;;4.20;99.90;;;;;;5071686;28;20457;-71
2021/12/11 07:57:56;;;;;;;47.47;44.03;;;4.20;99.90;;;;;;5071730;28;20454;-71
2021/12/11 08:00:25;;;;;;;47.23;44.13;;;4.30;99.90;;;;;;5071388;28;20451;-71
2021/12/11 08:02:52;;;;;;;46.80;43.80;;;4.20;99.90;;;;;;5071234;28;20452;-71
2021/12/11 08:05:20;;;;;;;46.80;43.70;;;4.20;99.90;;;;;;5071485;28;20843;-72
2021/12/11 08:07:47;;;;;;;45.77;42.87;;;4.20;99.90;;;;;;5071127;28;20864;-72
2021/12/11 08:10:18;;;;;;;46.03;42.93;;;4.20;99.90;;;;;;5071325;28;20967;-72
2021/12/11 08:12:45;;;;;;;48.17;45.13;;;4.30;99.90;;;;;;5071092;28;20493;-71
2021/12/11 08:15:14;;;;;;;47.20;44.20;;;4.30;99.90;;;;;;5071270;28;20459;-72
2021/12/11 08:17:41;;;;;;;47.57;44.37;;;4.30;99.90;;;;;;5071096;28;20847;-71
2021/12/11 08:20:11;;;;;;;48.03;44.33;;;4.40;99.90;;;;;;5070920;28;21077;-72
2021/12/11 08:22:38;;;;;;;46.90;43.80;;;4.40;99.90;;;;;;5070678;28;20467;-72
2021/12/11 08:25:07;;;;;;;46.77;43.63;;;4.50;99.90;;;;;;5070905;28;20458;-72
2021/12/11 08:27:36;;;;;;;46.97;43.83;;;4.50;99.90;;;;;;5070459;28;20444;-72
2021/12/11 08:30:09;;;;;;;46.20;43.00;;;4.30;99.90;;;;;;5070899;28;20447;-72
2021/12/11 08:32:36;;;;;;;46.30;43.20;;;4.30;99.90;;;;;;5070848;28;20494;-72
2021/12/11 08:35:09;;;;;;;44.70;41.73;;;4.20;99.90;;;;;;5070516;28;20842;-72
2021/12/11 08:37:36;;;;;;;44.77;41.57;;;4.30;99.90;;;;;;5070459;28;20465;-72
2021/12/11 08:40:06;;;;;;;44.10;41.03;;;4.30;99.90;;;;;;5070414;28;20450;-71
2021/12/11 08:42:35;;;;;;;43.23;40.47;;;4.30;99.90;;;;;;5070276;28;20450;-72
2021/12/11 08:45:06;;;;;;;45.63;42.50;;;4.40;99.90;;;;;;5070486;28;20991;-72
2021/12/11 08:47:34;;;;;;;42.73;39.80;;;4.50;99.90;;;;;;5070245;28;20483;-72
2021/12/11 08:50:01;;;;;;;41.93;39.20;;;4.50;99.90;;;;;;5070424;28;20516;-71
2021/12/11 08:52:30;;;;;;;42.30;39.77;;;4.40;99.90;;;;;;5070223;28;20494;-71
2021/12/11 08:54:58;;;;;;;41.77;39.20;;;4.50;99.90;;;;;;5070044;28;20452;-70
2021/12/11 08:57:29;;;;;;;42.73;39.93;;;4.40;99.90;;;;;;5069986;28;20466;-70
2021/12/11 09:00:01;;;;;;;41.27;38.53;;;4.50;99.90;;;;;;5070461;28;20868;-71
2021/12/11 09:02:34;;;;;;;42.70;39.87;;;4.50;99.90;;;;;;5070469;28;20450;-70
2021/12/11 09:05:07;;;;;;;40.93;38.53;;;4.60;99.90;;;;;;5070636;28;20455;-71
2021/12/11 09:07:38;;;;;;;40.63;38.00;;;4.70;99.90;;;;;;5070110;28;20447;-71
2021/12/11 09:10:10;;;;;;;40.63;38.00;;;4.70;99.90;;;;;;5070408;28;20445;-71
2021/12/11 09:12:40;;;;;;;38.70;36.20;;;4.70;99.90;;;;;;5070201;28;20491;-70
2021/12/11 09:15:14;;;;;;;40.27;37.33;;;4.80;99.90;;;;;;5070267;28;20451;-70
2021/12/11 09:17:44;;;;;;;36.33;34.13;;;4.90;99.90;;;;;;5070422;28;20473;-70
2021/12/11 09:20:20;;;;;;;34.03;31.80;;;4.90;99.90;;;;;;5070217;28;20458;-69
2021/12/11 09:22:52;;;;;;;34.27;32.00;;;4.80;99.90;;;;;;5070140;28;20510;-69
2021/12/11 09:25:23;;;;;;;32.93;30.83;;;4.80;99.90;;;;;;5069985;28;20974;-70
2021/12/11 09:27:54;;;;;;;31.40;29.37;;;4.90;99.90;;;;;;5070096;28;20811;-69
2021/12/11 09:30:26;;;;;;;29.27;27.37;;;4.90;99.90;;;;;;5070111;28;20798;-70
2021/12/11 09:32:57;;;;;;;30.57;28.23;;;4.90;99.90;;;;;;5070048;28;20479;-70
2021/12/11 09:35:28;;;;;;;29.40;27.50;;;4.90;99.90;;;;;;5070208;28;20513;-70
2021/12/11 09:38:00;;;;;;;29.27;27.13;;;5.10;99.90;;;;;;5069894;28;20454;-70
2021/12/11 09:40:50;;;;;;;27.73;25.90;;;5.30;99.90;;;;;;5071967;28;20455;-70
2021/12/11 09:43:38;;;;;;;25.67;23.87;;;5.40;99.90;;;;;;5073410;28;20945;-70
2021/12/11 09:46:07;;;;;;;25.43;23.70;;;5.30;99.90;;;;;;5073570;28;20481;-70
2021/12/11 09:48:37;;;;;;;24.00;22.40;;;5.30;99.90;;;;;;5073623;28;20452;-70
2021/12/11 09:51:09;;;;;;;24.70;23.00;;;5.50;99.90;;;;;;5073420;28;20539;-71
2021/12/11 09:53:39;;;;;;;23.73;22.23;;;5.60;99.90;;;;;;5073457;28;20525;-71
2021/12/11 09:56:10;;;;;;;22.43;21.03;;;5.70;99.90;;;;;;5073371;28;20520;-71
2021/12/11 09:58:40;;;;;;;23.90;22.20;;;5.80;99.90;;;;;;5073511;28;20510;-71
2021/12/11 10:01:11;;;;;;;23.87;22.13;;;6.00;99.90;;;;;;5073573;28;20457;-71
2021/12/11 10:03:45;;;;;;;21.43;19.93;;;6.30;99.90;;;;;;5073315;28;20465;-71
2021/12/11 10:06:27;;;;;;;21.43;19.90;;;6.30;99.90;;;;;;5073053;28;20481;-71
2021/12/11 10:09:09;;;;;;;21.07;19.63;;;6.30;99.90;;;;;;5073709;28;20479;-71
2021/12/11 10:11:36;;;;;;;19.60;18.23;;;6.60;99.90;;;;;;5073500;28;20454;-71
2021/12/11 10:14:08;;;;;;;21.33;19.90;;;6.50;99.90;;;;;;5089866;28;20454;-70
2021/12/11 10:16:40;;;;;;;18.97;17.83;;;6.70;99.90;;;;;;5092075;28;20457;-71
2021/12/11 10:19:09;;;;;;;19.47;18.30;;;6.90;99.90;;;;;;5091229;28;20461;-72
2021/12/11 10:21:38;;;;;;;19.10;18.00;;;6.70;99.90;;;;;;5073464;28;20446;-71
2021/12/11 10:24:08;;;;;;;18.93;17.73;;;6.70;99.90;;;;;;5072470;28;20474;-70
2021/12/11 10:26:35;;;;;;;19.10;18.00;;;6.60;99.90;;;;;;5073056;28;20447;-72
2021/12/11 10:29:09;;;;;;;20.17;18.70;;;6.90;99.90;;;;;;5073009;28;20459;-73
2021/12/11 10:31:40;;;;;;;19.50;18.20;;;7.00;99.90;;;;;;5072953;28;20447;-72
2021/12/11 10:34:10;;;;;;;19.33;17.97;;;7.10;99.90;;;;;;5072712;28;20453;-71
2021/12/11 10:36:41;;;;;;;18.73;17.37;;;7.20;99.90;;;;;;5072490;28;20458;-71
2021/12/11 10:39:10;;;;;;;18.07;16.97;;;7.20;99.90;;;;;;5072478;28;20474;-71
2021/12/11 10:41:38;;;;;;;15.50;14.70;;;7.20;99.90;;;;;;5072158;28;21055;-71
2021/12/11 10:44:09;;;;;;;16.77;15.80;;;7.20;99.90;;;;;;5052529;28;20443;-71
2021/12/11 10:46:40;;;;;;;17.30;16.30;;;7.10;99.90;;;;;;5051984;28;20486;-71
2021/12/11 10:49:09;;;;;;;17.63;16.60;;;7.10;99.90;;;;;;5052438;28;20461;-71
2021/12/11 10:51:41;;;;;;;17.90;16.80;;;7.10;99.90;;;;;;5051667;28;20452;-71
2021/12/11 10:54:08;;;;;;;16.13;15.20;;;7.10;99.90;;;;;;5052507;28;21017;-70
2021/12/11 10:56:35;;;;;;;16.00;15.20;;;6.80;99.90;;;;;;5052184;28;20462;-71
2021/12/11 10:59:07;;;;;;;16.30;15.30;;;6.50;99.90;;;;;;5052439;28;20470;-71
2021/12/11 11:01:38;;;;;;;17.60;16.10;;;6.50;99.90;;;;;;5051517;28;20459;-70
2021/12/11 11:04:09;;;;;;;17.70;16.07;;;6.30;99.90;;;;;;5051340;28;20442;-71
2021/12/11 11:06:37;;;;;;;16.30;15.27;;;6.50;99.90;;;;;;5050960;28;20460;-71
2021/12/11 11:09:05;;;;;;;16.37;15.37;;;6.40;99.90;;;;;;5065045;28;20465;-70
2021/12/11 11:11:34;;;;;;;16.50;15.50;;;6.60;99.90;;;;;;5079524;28;20799;-71
2021/12/11 11:14:01;;;;;;;16.27;15.27;;;6.80;99.90;;;;;;5077344;28;21084;-71
2021/12/11 11:16:29;;;;;;;15.97;14.97;;;6.80;99.90;;;;;;5078921;28;20559;-71
2021/12/11 11:18:57;;;;;;;15.40;14.33;;;6.90;99.90;;;;;;5079697;28;20443;-71
2021/12/11 11:21:30;;;;;;;14.80;13.90;;;6.70;99.90;;;;;;5079290;28;20960;-71
2021/12/11 11:23:57;;;;;;;15.50;14.50;;;6.80;99.90;;;;;;5082015;28;20968;-72
2021/12/11 11:26:29;;;;;;;16.10;15.10;;;6.80;99.90;;;;;;5079311;28;20444;-71
2021/12/11 11:28:57;;;;;;;16.40;15.27;;;6.70;99.90;;;;;;5076906;28;20519;-72
2021/12/11 11:31:26;;;;;;;17.10;16.00;;;6.90;99.90;;;;;;5080905;28;20509;-70
2021/12/11 11:33:53;;;;;;;16.37;15.10;;;6.90;99.90;;;;;;5079597;28;20487;-69
2021/12/11 11:36:26;;;;;;;15.47;14.53;;;6.80;99.90;;;;;;5079464;28;20442;-71
2021/12/11 11:38:56;;;;;;;16.00;14.90;;;6.80;99.90;;;;;;5076665;28;20450;-70
2021/12/11 11:41:26;;;;;;;16.70;15.70;;;6.80;99.90;;;;;;5080948;28;20456;-69
2021/12/11 11:43:53;;;;;;;16.27;15.37;;;6.90;99.90;;;;;;5077589;28;20873;-70
2021/12/11 11:46:22;;;;;;;16.17;15.10;;;7.00;99.90;;;;;;5078783;28;20466;-70
2021/12/11 11:48:52;;;;;;;15.63;14.77;;;7.00;99.90;;;;;;5075017;28;20450;-70
2021/12/11 11:51:25;;;;;;;14.50;13.60;;;6.90;99.90;;;;;;5077648;28;20757;-71
2021/12/11 11:53:53;;;;;;;16.37;15.17;;;7.00;99.90;;;;;;5070999;28;20801;-70
2021/12/11 11:56:26;;;;;;;15.13;14.23;;;7.20;99.90;;;;;;5071173;28;20450;-71
2021/12/11 11:58:53;;;;;;;14.70;13.90;;;7.00;99.90;;;;;;5071446;28;20453;-71
2021/12/11 12:01:24;;;;;;;13.37;12.67;;;6.90;99.90;;;;;;5071319;28;20476;-71
2021/12/11 12:03:52;;;;;;;14.80;13.97;;;7.00;99.90;;;;;;5070604;28;20806;-71
2021/12/11 12:06:24;;;;;;;15.17;14.20;;;6.90;99.90;;;;;;5071052;28;20466;-72
2021/12/11 12:08:56;;;;;;;14.80;13.87;;;7.00;99.90;;;;;;5071087;28;20457;-72
2021/12/11 12:11:25;;;;;;;15.00;14.00;;;6.90;99.90;;;;;;5071094;28;20954;-71
2021/12/11 12:13:52;;;;;;;16.27;15.03;;;6.90;99.90;;;;;;5070855;28;20492;-71
2021/12/11 12:16:19;;;;;;;14.20;13.50;;;6.60;99.90;;;;;;5071135;28;20466;-71
2021/12/11 12:18:46;;;;;;;14.97;14.17;;;6.70;99.90;;;;;;5071038;28;20449;-70
2021/12/11 12:21:16;;;;;;;14.83;14.03;;;6.60;99.90;;;;;;5070903;28;20506;-70
2021/12/11 12:23:44;;;;;;;15.20;14.27;;;6.60;99.90;;;;;;5071069;28;20466;-71
2021/12/11 12:26:14;;;;;;;16.83;15.47;;;6.60;99.90;;;;;;5070947;28;20453;-70
2021/12/11 12:28:42;;;;;;;16.20;15.30;;;6.60;99.90;;;;;;5070925;28;20468;-72
2021/12/11 12:31:13;;;;;;;16.20;15.20;;;6.60;99.90;;;;;;5070915;28;20453;-72
2021/12/11 12:33:40;;;;;;;15.77;14.77;;;6.60;99.90;;;;;;5077315;28;20894;-71
2021/12/11 12:36:08;;;;;;;16.53;15.53;;;6.60;99.90;;;;;;5079225;28;20440;-72
2021/12/11 12:38:37;;;;;;;16.57;15.37;;;6.70;99.90;;;;;;5077870;28;20474;-72
2021/12/11 12:41:08;;;;;;;16.00;15.10;;;6.70;99.90;;;;;;5079892;28;20903;-72
2021/12/11 12:44:16;;;;;;;16.07;15.07;;;6.70;99.90;;;;;;5077177;28;20747;-72
2021/12/11 12:46:50;;;;;;;16.27;15.33;;;6.80;99.90;;;;;;5071435;28;20462;-73
2021/12/11 12:49:17;;;;;;;16.03;15.03;;;6.70;99.90;;;;;;5072296;28;20450;-71
2021/12/11 12:51:45;;;;;;;16.50;15.50;;;6.80;99.90;;;;;;5070505;28;20450;-73